Etusivu
METAR-TAF:

METAR-TAF

Lentoasemat :

Varnan lentoasema

Varna, Bulgaria

Leveyspiiri: 43-12N, Pituuspiiri: 027-55E, korkeus merenpinnasta: 41 m

Tämänhetkinen sää

Tämä raportti tehtiin 13 minuuttia sitten, kello 08.30 UTC
Tuuli 16 kn lännestä
Lämpötila 23°C
Kosteus 38%
Ilmanpaine 1012 hPa
Näkyvyys 10 km tai enemmän
ei pilviä alle 1500 m:ssä eikä cumulonimbus-pilviä

METAR: LBWN 190830Z 28016KT CAVOK 23/08 Q1012 NOSIG

Aika: 11:43 (08:43 UTC)

Sääennuste

Tämä raportti tehtiin 3 tuntia ja 43 minuuttia sitten, kello 05.00 UTC
Ennuste voimassa 19. päivästä klo 06 UTC - 20. päivään klo 06 UTC
Tuuli 14 kn lännestä
Näkyvyys 10 km tai enemmän
Hajanaisia pilviä 4500 ft:n korkeudessa

TAF: LBWN 190500Z 1906/2006 27014KT 9999 SCT045

Säähavainnot ja -ennusteet yli 4000 lentoasemalta (METAR- ja TAF-raportit).

Käytössä olevat sääasemat on merkitty karttaan keltaisilla ja punaisilla pisteillä.

Aseta hiiri pisteen päälle nähdäksesi sääaseman nimen.

Klikkaa sitten nähdäksesi säähavainnot ja -ennusteet.

Kartan vaihtaminen: klikkaa mustalla rastilla varustettuja vihreitä pisteitä, niin voit zoomata sisään; viivalla varustettua vihreää pistettä, niin voit zoomata ulos tai vihreitä nuolia, niin pääset viereisille kartoille.


METAR-TAF: